createdAt,value
2019-04-11T00:01:48.026Z,6.80
2019-04-11T00:04:15.760Z,6.90
2019-04-11T00:06:45.101Z,7.00
2019-04-11T00:09:16.723Z,6.90
2019-04-11T00:11:46.255Z,6.90
2019-04-11T00:14:15.943Z,6.90
2019-04-11T00:16:45.952Z,6.90
2019-04-11T00:19:15.587Z,6.70
2019-04-11T00:21:45.209Z,6.70
2019-04-11T00:24:15.222Z,6.60
2019-04-11T00:26:44.673Z,6.50
2019-04-11T00:29:14.366Z,6.50
2019-04-11T00:31:43.844Z,6.60
2019-04-11T00:34:13.116Z,6.60
2019-04-11T00:36:42.398Z,6.60
2019-04-11T00:39:13.827Z,6.60
2019-04-11T00:41:43.100Z,6.60
2019-04-11T00:44:12.631Z,6.50
2019-04-11T00:46:42.621Z,6.50
2019-04-11T00:49:12.383Z,6.50
2019-04-11T00:51:42.352Z,6.50
2019-04-11T00:54:11.679Z,6.50
2019-04-11T00:56:42.185Z,6.50
2019-04-11T00:59:11.705Z,6.50
2019-04-11T01:01:40.997Z,6.50
2019-04-11T01:04:10.309Z,6.50
2019-04-11T01:06:40.457Z,6.40
2019-04-11T01:09:10.998Z,6.40
2019-04-11T01:11:40.431Z,6.40
2019-04-11T01:14:09.868Z,6.30
2019-04-11T01:16:45.105Z,6.30
2019-04-11T01:19:14.329Z,6.30
2019-04-11T01:21:44.502Z,6.20
2019-04-11T01:24:13.653Z,6.30
2019-04-11T01:26:43.470Z,6.40
2019-04-11T01:29:13.413Z,6.20
2019-04-11T01:31:44.213Z,6.20
2019-04-11T01:34:13.496Z,6.20
2019-04-11T01:36:42.939Z,6.20
2019-04-11T01:39:30.029Z,6.20
2019-04-11T01:42:00.700Z,6.20
2019-04-11T01:44:30.431Z,6.10
2019-04-11T01:46:59.684Z,6.20
2019-04-11T01:49:30.477Z,6.20
2019-04-11T01:52:00.165Z,6.00
2019-04-11T01:54:29.997Z,6.00
2019-04-11T01:56:59.388Z,5.90
2019-04-11T01:59:29.144Z,6.00
2019-04-11T02:02:17.417Z,6.10
2019-04-11T02:04:56.939Z,6.20
2019-04-11T02:07:26.839Z,6.10
2019-04-11T02:09:56.769Z,5.90
2019-04-11T02:12:26.905Z,5.90
2019-04-11T02:14:56.085Z,6.10
2019-04-11T02:17:25.129Z,6.10
2019-04-11T02:19:57.278Z,6.00
2019-04-11T02:22:43.606Z,6.00
2019-04-11T02:25:47.308Z,6.00
2019-04-11T02:28:17.357Z,6.00
2019-04-11T02:30:50.999Z,5.90
2019-04-11T02:33:21.614Z,5.70
2019-04-11T02:35:51.838Z,5.70
2019-04-11T02:38:21.369Z,5.70
2019-04-11T02:40:52.585Z,5.70
2019-04-11T02:43:22.997Z,5.70
2019-04-11T02:46:05.156Z,5.70
2019-04-11T02:48:24.544Z,5.70
2019-04-11T02:50:54.255Z,5.70
2019-04-11T02:53:25.823Z,5.70
2019-04-11T02:55:56.602Z,5.50
2019-04-11T02:58:27.824Z,5.60
2019-04-11T03:00:59.402Z,5.70
2019-04-11T03:03:29.572Z,5.70
2019-04-11T03:06:00.027Z,5.70
2019-04-11T03:08:31.780Z,5.70
2019-04-11T03:11:01.805Z,5.40
2019-04-11T03:13:33.265Z,5.50
2019-04-11T03:16:19.065Z,5.40
2019-04-11T03:18:53.123Z,5.40
2019-04-11T03:21:11.363Z,5.30
2019-04-11T03:23:37.468Z,5.30
2019-04-11T03:26:07.526Z,5.40
2019-04-11T03:28:38.902Z,5.40
2019-04-11T03:31:43.930Z,5.30
2019-04-11T03:34:44.393Z,5.30
2019-04-11T03:39:06.003Z,5.20
2019-04-11T03:41:29.444Z,5.10
2019-04-11T03:43:57.105Z,5.10
2019-04-11T03:46:32.659Z,5.00
2019-04-11T03:48:59.899Z,4.80
2019-04-11T03:51:20.996Z,4.90
2019-04-11T03:53:51.657Z,5.00
2019-04-11T03:56:22.018Z,4.80
2019-04-11T03:58:51.246Z,4.80
2019-04-11T04:01:22.510Z,4.90
2019-04-11T04:03:53.484Z,5.00
2019-04-11T04:06:23.392Z,5.00
2019-04-11T04:08:53.679Z,4.90
2019-04-11T04:11:27.505Z,4.80
2019-04-11T04:14:15.470Z,4.70
2019-04-11T04:16:59.297Z,4.80
2019-04-11T04:19:45.566Z,4.60
2019-04-11T04:22:24.238Z,4.70
2019-04-11T04:24:53.891Z,4.70
2019-04-11T04:27:27.450Z,4.70
2019-04-11T04:29:57.695Z,4.60
2019-04-11T04:32:25.453Z,4.50
2019-04-11T04:34:56.328Z,4.40
2019-04-11T04:37:26.585Z,4.40
2019-04-11T04:40:13.491Z,4.40
2019-04-11T04:42:33.308Z,4.40
2019-04-11T04:44:59.174Z,4.50
2019-04-11T04:47:37.333Z,4.60
2019-04-11T04:49:59.491Z,4.60
2019-04-11T04:52:31.903Z,4.50
2019-04-11T04:55:02.167Z,4.50
2019-04-11T04:57:33.498Z,4.40
2019-04-11T05:00:04.897Z,4.50
2019-04-11T05:02:35.440Z,4.50
2019-04-11T05:05:06.105Z,4.50
2019-04-11T05:07:40.224Z,4.40
2019-04-11T05:10:08.788Z,4.60
2019-04-11T05:12:38.807Z,4.50
2019-04-11T05:15:08.175Z,4.20
2019-04-11T05:17:38.543Z,4.30
2019-04-11T05:20:09.215Z,4.30
2019-04-11T05:22:39.329Z,4.00
2019-04-11T05:25:08.524Z,4.00
2019-04-11T05:27:37.878Z,4.20
2019-04-11T05:30:08.379Z,4.30
2019-04-11T05:32:38.195Z,4.30
2019-04-11T05:35:07.533Z,4.30
2019-04-11T05:37:37.803Z,4.30
2019-04-11T05:40:07.485Z,4.30
2019-04-11T05:42:37.643Z,4.30
2019-04-11T05:45:15.231Z,4.30
2019-04-11T05:47:39.305Z,4.30
2019-04-11T05:50:17.987Z,4.40
2019-04-11T05:52:48.267Z,4.50
2019-04-11T05:55:17.871Z,4.50
2019-04-11T05:57:47.972Z,4.50
2019-04-11T06:00:25.336Z,4.50
2019-04-11T06:03:01.647Z,4.60
2019-04-11T06:05:40.838Z,4.40
2019-04-11T06:08:12.538Z,4.50
2019-04-11T06:11:02.899Z,4.50
2019-04-11T06:13:36.418Z,4.50
2019-04-11T06:16:06.371Z,4.60
2019-04-11T06:19:04.015Z,4.70
2019-04-11T06:21:46.913Z,4.70
2019-04-11T06:24:36.313Z,4.70
2019-04-11T06:27:22.155Z,4.60
2019-04-11T06:30:13.453Z,4.60
2019-04-11T06:33:10.180Z,4.60
2019-04-11T06:36:05.261Z,4.80
2019-04-11T06:38:49.791Z,4.70
2019-04-11T06:41:43.745Z,4.70
2019-04-11T06:44:39.529Z,4.80
2019-04-11T06:47:25.474Z,4.80
2019-04-11T06:50:13.612Z,4.90
2019-04-11T06:52:49.330Z,5.00
2019-04-11T06:55:31.590Z,5.00
2019-04-11T06:58:05.377Z,5.00
2019-04-11T07:00:35.109Z,5.00
2019-04-11T07:03:05.496Z,5.10
2019-04-11T07:05:36.420Z,5.00
2019-04-11T07:08:05.604Z,5.00
2019-04-11T07:10:39.374Z,5.10
2019-04-11T07:13:14.278Z,5.10
2019-04-11T07:15:50.536Z,5.20
2019-04-11T07:18:37.846Z,5.20
2019-04-11T07:21:09.128Z,5.30
2019-04-11T07:23:57.478Z,5.40
2019-04-11T07:26:37.287Z,5.50
2019-04-11T07:29:25.906Z,5.50
2019-04-11T07:32:07.544Z,5.50
2019-04-11T07:35:00.014Z,5.30
2019-04-11T07:37:33.903Z,5.50
2019-04-11T07:40:26.917Z,5.70
2019-04-11T07:43:08.870Z,5.80
2019-04-11T07:45:45.550Z,5.80
2019-04-11T07:48:17.855Z,5.70
2019-04-11T07:50:46.907Z,5.80
2019-04-11T07:53:17.451Z,5.70
2019-04-11T07:55:47.145Z,5.80
2019-04-11T07:58:50.575Z,5.80
2019-04-11T08:01:42.338Z,5.80
2019-04-11T08:04:31.943Z,5.80
2019-04-11T08:07:19.913Z,5.90
2019-04-11T08:09:55.017Z,6.00
2019-04-11T08:12:28.197Z,5.90
2019-04-11T08:15:15.456Z,5.90
2019-04-11T08:17:46.033Z,6.00
2019-04-11T08:20:33.328Z,6.10
2019-04-11T08:23:07.612Z,6.20
2019-04-11T08:25:55.862Z,6.30
2019-04-11T08:28:24.947Z,6.40
2019-04-11T08:31:25.024Z,6.40
2019-04-11T08:33:57.196Z,6.50
2019-04-11T08:36:48.923Z,6.50
2019-04-11T08:39:24.873Z,6.70
2019-04-11T08:42:13.285Z,6.70
2019-04-11T08:44:43.862Z,6.60
2019-04-11T08:47:16.143Z,6.70
2019-04-11T08:49:48.278Z,6.70
2019-04-11T08:52:27.873Z,6.70
2019-04-11T08:55:04.113Z,6.60
2019-04-11T08:57:36.108Z,6.70
2019-04-11T09:00:43.464Z,6.80
2019-04-11T09:03:40.394Z,7.00
2019-04-11T09:06:18.856Z,7.10
2019-04-11T09:09:19.237Z,7.20
2019-04-11T09:12:12.092Z,7.50
2019-04-11T09:15:00.194Z,7.60
2019-04-11T09:18:01.046Z,7.50
2019-04-11T09:20:40.347Z,7.60
2019-04-11T09:23:11.446Z,7.80
2019-04-11T09:26:15.952Z,7.60
2019-04-11T09:28:47.885Z,7.60
2019-04-11T09:31:42.186Z,7.70
2019-04-11T09:34:31.192Z,7.70
2019-04-11T09:37:23.133Z,7.80
2019-04-11T09:40:23.970Z,7.90
2019-04-11T09:43:22.150Z,8.00
2019-04-11T09:46:10.453Z,8.20
2019-04-11T09:49:14.999Z,8.20
2019-04-11T09:52:02.693Z,8.00
2019-04-11T09:54:56.873Z,8.20
2019-04-11T09:57:35.003Z,8.20
2019-04-11T10:00:24.010Z,8.20
2019-04-11T10:02:56.346Z,7.90
2019-04-11T10:05:38.905Z,8.10
2019-04-11T10:08:13.390Z,7.90
2019-04-11T10:11:00.065Z,8.00
2019-04-11T10:13:47.015Z,8.00
2019-04-11T10:16:53.648Z,7.80
2019-04-11T10:19:44.624Z,7.90
2019-04-11T10:22:36.185Z,8.10
2019-04-11T10:25:40.537Z,8.20
2019-04-11T10:28:29.577Z,8.20
2019-04-11T10:31:14.683Z,8.30
2019-04-11T10:34:04.648Z,8.30
2019-04-11T10:36:47.473Z,8.30
2019-04-11T10:39:39.519Z,8.40
2019-04-11T10:42:11.080Z,8.40
2019-04-11T10:45:02.789Z,8.40
2019-04-11T10:47:33.375Z,8.50
2019-04-11T10:50:15.473Z,8.50
2019-04-11T10:52:56.161Z,8.60
2019-04-11T10:55:44.290Z,8.80
2019-04-11T10:58:18.452Z,8.90
2019-04-11T11:01:15.888Z,8.90
2019-04-11T11:03:51.445Z,8.80
2019-04-11T11:06:23.980Z,8.80
2019-04-11T11:09:12.162Z,8.70
2019-04-11T11:11:50.511Z,8.60
2019-04-11T11:14:38.492Z,8.60
2019-04-11T11:17:43.809Z,8.30
2019-04-11T11:20:22.378Z,8.40
2019-04-11T11:23:08.070Z,8.40
2019-04-11T11:25:48.311Z,8.50
2019-04-11T11:28:17.813Z,8.30
2019-04-11T11:31:18.390Z,8.20
2019-04-11T11:33:47.489Z,8.10
2019-04-11T11:36:54.979Z,8.30
2019-04-11T11:39:39.461Z,8.40
2019-04-11T11:42:26.374Z,8.30
2019-04-11T11:44:59.322Z,8.10
2019-04-11T11:47:46.349Z,8.00
2019-04-11T11:50:19.858Z,7.70
2019-04-11T11:53:22.696Z,7.80
2019-04-11T11:55:53.627Z,8.00
2019-04-11T11:58:42.681Z,8.40
2019-04-11T12:01:11.748Z,8.60
2019-04-11T12:04:08.920Z,8.80
2019-04-11T12:06:38.873Z,8.90
2019-04-11T12:09:26.658Z,9.00
2019-04-11T12:12:00.433Z,8.90
2019-04-11T12:14:44.740Z,9.00
2019-04-11T12:17:38.091Z,9.00
2019-04-11T12:20:21.045Z,8.70
2019-04-11T12:22:52.083Z,8.80
2019-04-11T12:25:25.111Z,9.10
2019-04-11T12:28:23.433Z,8.90
2019-04-11T12:31:00.581Z,9.00
2019-04-11T12:33:43.803Z,9.20
2019-04-11T12:36:16.847Z,9.20
2019-04-11T12:39:06.434Z,9.10
2019-04-11T12:41:56.306Z,9.10
2019-04-11T12:44:50.657Z,9.10
2019-04-11T12:47:41.306Z,9.20
2019-04-11T12:50:30.425Z,9.30
2019-04-11T12:53:28.286Z,9.20
2019-04-11T12:56:31.986Z,9.20
2019-04-11T12:59:04.109Z,9.30
2019-04-11T13:01:51.302Z,9.20
2019-04-11T13:04:37.794Z,9.00
2019-04-11T13:07:35.025Z,8.80
2019-04-11T13:10:34.580Z,9.00
2019-04-11T13:13:22.740Z,9.30
2019-04-11T13:15:57.618Z,9.40
2019-04-11T13:18:51.551Z,9.50
2019-04-11T13:21:24.522Z,9.40
2019-04-11T13:24:12.929Z,9.30
2019-04-11T13:27:07.155Z,9.40
2019-04-11T13:30:01.061Z,9.20
2019-04-11T13:32:36.556Z,9.00
2019-04-11T13:35:12.752Z,9.00
2019-04-11T13:37:59.711Z,8.90
2019-04-11T13:40:48.144Z,9.00
2019-04-11T13:43:42.486Z,8.80
2019-04-11T13:46:39.689Z,8.50
2019-04-11T13:49:27.078Z,8.60
2019-04-11T13:52:27.785Z,8.60
2019-04-11T13:55:31.725Z,8.60
2019-04-11T13:58:18.781Z,8.70
2019-04-11T14:00:51.981Z,8.80
2019-04-11T14:03:49.169Z,8.60
2019-04-11T14:06:29.710Z,8.70
2019-04-11T14:09:23.851Z,8.90
2019-04-11T14:12:04.851Z,9.00
2019-04-11T14:14:40.157Z,9.00
2019-04-11T14:17:18.122Z,9.00
2019-04-11T14:20:15.230Z,8.90
2019-04-11T14:23:14.759Z,8.80
2019-04-11T14:26:12.533Z,8.80
2019-04-11T14:28:50.839Z,8.70
2019-04-11T14:31:45.169Z,8.60
2019-04-11T14:34:36.272Z,8.50
2019-04-11T14:37:24.759Z,8.40
2019-04-11T14:39:57.771Z,8.40
2019-04-11T14:42:51.989Z,8.30
2019-04-11T14:45:40.076Z,8.30
2019-04-11T14:48:13.660Z,8.30
2019-04-11T14:51:08.077Z,8.30
2019-04-11T14:54:24.464Z,8.40
2019-04-11T14:56:59.768Z,8.50
2019-04-11T14:59:36.563Z,8.30
2019-04-11T15:02:30.131Z,8.50
2019-04-11T15:05:13.616Z,8.50
2019-04-11T15:07:40.765Z,8.50
2019-04-11T15:10:31.979Z,8.50
2019-04-11T15:13:01.066Z,8.40
2019-04-11T15:15:49.176Z,8.40
2019-04-11T15:18:19.587Z,8.50
2019-04-11T15:20:55.541Z,8.40
2019-04-11T15:23:37.687Z,8.40
2019-04-11T15:26:25.505Z,8.30
2019-04-11T15:29:14.271Z,8.30
2019-04-11T15:32:02.088Z,8.30
2019-04-11T15:34:59.063Z,8.30
2019-04-11T15:37:47.243Z,8.30
2019-04-11T15:40:41.549Z,8.20
2019-04-11T15:43:42.064Z,8.30
2019-04-11T15:46:14.732Z,8.10
2019-04-11T15:49:03.560Z,8.10
2019-04-11T15:51:40.178Z,8.10
2019-04-11T15:54:17.093Z,8.00
2019-04-11T15:57:14.432Z,8.00
2019-04-11T16:00:01.387Z,7.90
2019-04-11T16:03:01.729Z,8.00
2019-04-11T16:05:49.877Z,8.00
2019-04-11T16:08:26.237Z,8.00
2019-04-11T16:11:13.457Z,8.10
2019-04-11T16:14:07.665Z,8.00
2019-04-11T16:17:13.868Z,8.20
2019-04-11T16:19:53.237Z,8.20
2019-04-11T16:22:55.106Z,8.10
2019-04-11T16:25:22.891Z,8.10
2019-04-11T16:28:10.997Z,8.00
2019-04-11T16:30:54.994Z,7.80
2019-04-11T16:33:45.883Z,7.90
2019-04-11T16:36:32.081Z,7.90
2019-04-11T16:39:26.381Z,7.80
2019-04-11T16:42:12.071Z,7.50
2019-04-11T16:45:00.174Z,7.40
2019-04-11T16:47:42.913Z,7.50
2019-04-11T16:50:12.192Z,7.50
2019-04-11T16:52:41.218Z,7.50
2019-04-11T16:55:10.694Z,7.50
2019-04-11T16:57:43.989Z,7.50
2019-04-11T17:00:12.521Z,7.50
2019-04-11T17:02:41.556Z,7.40
2019-04-11T17:05:11.640Z,7.40
2019-04-11T17:08:03.090Z,7.30
2019-04-11T17:10:49.800Z,7.20
2019-04-11T17:13:18.861Z,7.30
2019-04-11T17:15:47.997Z,7.30
2019-04-11T17:18:18.981Z,7.30
2019-04-11T17:20:47.893Z,7.20
2019-04-11T17:23:17.412Z,7.10
2019-04-11T17:25:52.338Z,7.20
2019-04-11T17:28:17.889Z,7.20
2019-04-11T17:30:47.396Z,7.10
2019-04-11T17:33:16.426Z,7.10
2019-04-11T17:35:45.512Z,6.90
2019-04-11T17:38:14.633Z,7.00
2019-04-11T17:40:43.668Z,7.00
2019-04-11T17:43:13.919Z,7.10
2019-04-11T17:45:43.481Z,7.20
2019-04-11T17:48:12.613Z,7.20
2019-04-11T17:50:41.764Z,7.10
2019-04-11T17:53:10.872Z,7.00
2019-04-11T17:55:39.942Z,6.90
2019-04-11T17:58:09.005Z,6.90
2019-04-11T18:00:40.313Z,6.80
2019-04-11T18:03:11.778Z,6.80
2019-04-11T18:05:40.140Z,6.80
2019-04-11T18:08:09.314Z,6.80
2019-04-11T18:10:38.925Z,6.90
2019-04-11T18:13:08.365Z,6.90
2019-04-11T18:15:37.669Z,6.90
2019-04-11T18:18:06.817Z,6.90
2019-04-11T18:20:37.553Z,6.80
2019-04-11T18:23:07.117Z,6.80
2019-04-11T18:25:37.649Z,6.80
2019-04-11T18:28:06.708Z,6.80
2019-04-11T18:30:35.768Z,6.80
2019-04-11T18:33:04.842Z,6.80
2019-04-11T18:35:33.905Z,6.90
2019-04-11T18:38:03.249Z,6.80
2019-04-11T18:40:32.324Z,6.70
2019-04-11T18:43:01.372Z,6.80
2019-04-11T18:45:30.438Z,6.70
2019-04-11T18:47:59.494Z,6.60
2019-04-11T18:50:28.895Z,6.50
2019-04-11T18:52:59.620Z,6.50
2019-04-11T18:55:28.974Z,6.50
2019-04-11T18:57:58.050Z,6.50
2019-04-11T19:00:27.609Z,6.40
2019-04-11T19:02:56.752Z,6.60
2019-04-11T19:05:28.961Z,6.40
2019-04-11T19:07:56.582Z,6.50
2019-04-11T19:10:25.706Z,6.40
2019-04-11T19:12:54.851Z,6.40
2019-04-11T19:15:23.941Z,6.50
2019-04-11T19:18:05.669Z,6.50
2019-04-11T19:20:24.125Z,6.50
2019-04-11T19:22:53.100Z,6.60
2019-04-11T19:25:22.177Z,6.70
2019-04-11T19:27:54.098Z,6.80
2019-04-11T19:30:24.024Z,6.80
2019-04-11T19:32:52.942Z,6.70
2019-04-11T19:35:21.925Z,6.60
2019-04-11T19:37:51.050Z,6.50
2019-04-11T19:40:20.162Z,6.40
2019-04-11T19:42:49.818Z,6.40
2019-04-11T19:45:19.403Z,6.50
2019-04-11T19:47:51.851Z,6.50
2019-04-11T19:50:20.188Z,6.50
2019-04-11T19:52:49.294Z,6.70
2019-04-11T19:55:46.625Z,6.80
2019-04-11T19:58:16.193Z,6.70
2019-04-11T20:00:53.063Z,6.60
2019-04-11T20:03:21.816Z,6.60
2019-04-11T20:05:51.252Z,6.60
2019-04-11T20:08:20.776Z,6.60
2019-04-11T20:10:49.900Z,6.50
2019-04-11T20:13:19.142Z,6.60
2019-04-11T20:15:50.536Z,6.60
2019-04-11T20:18:22.333Z,6.50
2019-04-11T20:20:52.248Z,6.50
2019-04-11T20:23:21.086Z,6.50
2019-04-11T20:25:50.254Z,6.30
2019-04-11T20:28:20.696Z,6.30
2019-04-11T20:30:50.094Z,6.30
2019-04-11T20:33:27.082Z,6.30
2019-04-11T20:35:49.977Z,6.40
2019-04-11T20:38:19.053Z,6.30
2019-04-11T20:40:52.106Z,6.40
2019-04-11T20:43:19.312Z,6.30
2019-04-11T20:45:48.419Z,6.20
2019-04-11T20:48:17.457Z,6.30
2019-04-11T20:50:46.456Z,6.10
2019-04-11T20:53:17.537Z,6.10
2019-04-11T20:55:46.622Z,6.10
2019-04-11T20:58:26.769Z,6.10
2019-04-11T21:00:50.568Z,6.20
2019-04-11T21:03:17.813Z,6.20
2019-04-11T21:05:47.224Z,6.30
2019-04-11T21:08:16.325Z,6.20
2019-04-11T21:10:45.368Z,6.00
2019-04-11T21:13:14.453Z,6.00
2019-04-11T21:15:43.716Z,6.00
2019-04-11T21:18:12.753Z,6.10
2019-04-11T21:20:42.002Z,6.20
2019-04-11T21:23:11.085Z,6.20
2019-04-11T21:25:40.215Z,6.20
2019-04-11T21:28:09.310Z,6.20
2019-04-11T21:30:38.566Z,6.30
2019-04-11T21:33:09.405Z,6.30
2019-04-11T21:35:39.072Z,6.20
2019-04-11T21:38:08.111Z,6.20
2019-04-11T21:40:37.220Z,6.20
2019-04-11T21:43:06.808Z,6.30
2019-04-11T21:45:36.564Z,6.30
2019-04-11T21:48:06.885Z,6.30
2019-04-11T21:50:40.306Z,6.30
2019-04-11T21:53:06.978Z,6.20
2019-04-11T21:55:36.115Z,5.90
2019-04-11T21:58:05.253Z,5.90
2019-04-11T22:00:40.658Z,6.00
2019-04-11T22:03:10.065Z,6.00
2019-04-11T22:05:39.359Z,6.10
2019-04-11T22:08:08.597Z,6.10
2019-04-11T22:10:40.122Z,6.20
2019-04-11T22:13:10.106Z,6.20
2019-04-11T22:15:42.127Z,6.20
2019-04-11T22:18:10.040Z,6.20
2019-04-11T22:20:39.076Z,6.30
2019-04-11T22:23:08.185Z,6.10
2019-04-11T22:25:37.249Z,5.90
2019-04-11T22:28:06.325Z,5.90
2019-04-11T22:30:35.411Z,6.00
2019-04-11T22:33:27.659Z,6.10
2019-04-11T22:35:57.031Z,6.20
2019-04-11T22:38:30.569Z,6.20
2019-04-11T22:41:01.756Z,6.00
2019-04-11T22:43:28.637Z,5.90
2019-04-11T22:45:57.696Z,5.80
2019-04-11T22:48:26.773Z,5.90
2019-04-11T22:50:55.825Z,6.00
2019-04-11T22:53:24.869Z,6.10
2019-04-11T22:55:53.953Z,6.00
2019-04-11T22:58:23.027Z,5.60
2019-04-11T23:00:52.061Z,5.50
2019-04-11T23:03:32.414Z,5.60
2019-04-11T23:06:01.453Z,5.70
2019-04-11T23:08:30.554Z,5.70
2019-04-11T23:10:59.606Z,5.90
2019-04-11T23:13:28.645Z,6.10
2019-04-11T23:15:57.692Z,6.00
2019-04-11T23:18:26.749Z,6.10
2019-04-11T23:20:56.033Z,6.10
2019-04-11T23:23:25.194Z,6.20
2019-04-11T23:25:54.159Z,6.10
2019-04-11T23:28:23.217Z,5.90
2019-04-11T23:30:52.277Z,6.00
2019-04-11T23:33:21.953Z,5.90
2019-04-11T23:35:51.715Z,5.90
2019-04-11T23:38:23.586Z,5.90
2019-04-11T23:40:53.640Z,5.80
2019-04-11T23:43:22.687Z,5.90
2019-04-11T23:45:51.896Z,5.70
2019-04-11T23:48:23.836Z,5.70
2019-04-11T23:50:54.788Z,5.80
2019-04-11T23:53:22.853Z,5.70
2019-04-11T23:55:51.914Z,5.70
2019-04-11T23:58:20.947Z,5.80
